Time;durP1;ratioP1;P1;durP2;ratioP2;P2;SDS_P1;SDS_P2;PMS_P1;PMS_P2;Temp;Humidity;BMP_temperature;BMP_pressure;BME280_temperature;BME280_humidity;BME280_pressure;Samples;Min_cycle;Max_cycle;Signal;HPM_P1;HPM_P2
2021/12/14 00:01:35;;;;;;;32.35;21.33;;;;;;;;;;5062083;27;98533;-71
2021/12/14 00:04:06;;;;;;;33.03;21.17;;;;;;;;;;5080308;27;93369;-71
2021/12/14 00:06:33;;;;;;;27.23;20.02;;;;;;;;;;5080282;27;92327;-71
2021/12/14 00:09:01;;;;;;;29.00;21.30;;;;;;;;;;5080074;27;93448;-72
2021/12/14 00:16:46;;;;;;;31.13;21.52;;;;;;;;;;5062571;27;93342;-72
2021/12/14 00:19:13;;;;;;;30.95;21.65;;;;;;;;;;5080286;27;92381;-71
2021/12/14 00:21:42;;;;;;;32.90;22.58;;;;;;;;;;5080021;27;93495;-70
2021/12/14 00:24:11;;;;;;;29.15;21.20;;;;;;;;;;5078527;27;95423;-71
2021/12/14 00:26:40;;;;;;;27.35;21.33;;;;;;;;;;5079857;27;92278;-71
2021/12/14 00:29:07;;;;;;;30.63;22.10;;;;;;;;;;5061606;27;95287;-71
2021/12/14 00:31:36;;;;;;;30.70;22.33;;;;;;;;;;5064517;27;96148;-70
2021/12/14 00:34:05;;;;;;;28.85;22.05;;;;;;;;;;5061557;27;94361;-70
2021/12/14 00:36:32;;;;;;;31.75;22.02;;;;;;;;;;5079519;27;93877;-72
2021/12/14 00:38:58;;;;;;;31.48;22.10;;;;;;;;;;5079563;27;93161;-72
2021/12/14 00:41:27;;;;;;;31.38;22.08;;;;;;;;;;5080415;27;92444;-73
2021/12/14 00:43:54;;;;;;;29.70;22.88;;;;;;;;;;5061564;27;94456;-72
2021/12/14 00:46:21;;;;;;;34.40;22.55;;;;;;;;;;5079551;27;92331;-72
2021/12/14 00:48:49;;;;;;;29.60;22.42;;;;;;;;;;5078201;27;94571;-72
2021/12/14 00:51:18;;;;;;;30.90;22.13;;;;;;;;;;5079322;27;93665;-72
2021/12/14 00:53:44;;;;;;;31.38;23.60;;;;;;;;;;5064475;27;93579;-71
2021/12/14 00:56:11;;;;;;;33.33;22.20;;;;;;;;;;5061335;27;96245;-71
2021/12/14 00:58:38;;;;;;;32.28;23.55;;;;;;;;;;5044413;27;93120;-71
2021/12/14 01:01:09;;;;;;;31.08;23.75;;;;;;;;;;5061172;27;95894;-71
2021/12/14 01:03:36;;;;;;;36.97;23.20;;;;;;;;;;5061105;27;95332;-71
2021/12/14 01:06:03;;;;;;;32.72;23.63;;;;;;;;;;5079144;27;91582;-71
2021/12/14 01:08:34;;;;;;;31.67;23.40;;;;;;;;;;5078590;27;92287;-71
2021/12/14 01:11:05;;;;;;;32.93;24.27;;;;;;;;;;5039642;27;95186;-71
2021/12/14 01:13:35;;;;;;;35.65;23.50;;;;;;;;;;5036938;28;94641;-71
2021/12/14 01:16:30;;;;;;;31.73;23.15;;;;;;;;;;5041196;28;95215;-71
2021/12/14 01:19:13;;;;;;;33.22;23.10;;;;;;;;;;5037089;28;92600;-71
2021/12/14 01:22:00;;;;;;;34.88;23.63;;;;;;;;;;5037057;28;95891;-71
2021/12/14 01:27:09;;;;;;;35.40;23.70;;;;;;;;;;5038308;27;92238;-71
2021/12/14 01:29:36;;;;;;;35.65;23.38;;;;;;;;;;5036919;28;95972;-71
2021/12/14 01:32:04;;;;;;;30.58;22.80;;;;;;;;;;5038503;28;92593;-72
2021/12/14 01:34:32;;;;;;;31.05;23.48;;;;;;;;;;5036774;28;93241;-71
2021/12/14 01:37:02;;;;;;;34.78;23.05;;;;;;;;;;5020386;28;94940;-71
2021/12/14 01:41:58;;;;;;;35.58;23.08;;;;;;;;;;5036831;28;96737;-72
2021/12/14 01:44:29;;;;;;;36.00;24.27;;;;;;;;;;5037780;28;93532;-71
2021/12/14 01:46:59;;;;;;;33.28;24.38;;;;;;;;;;5036832;28;93313;-71
2021/12/14 01:49:51;;;;;;;35.90;23.58;;;;;;;;;;5037306;27;92891;-72
2021/12/14 01:52:36;;;;;;;37.15;24.35;;;;;;;;;;5036403;28;95953;-71
2021/12/14 01:55:06;;;;;;;33.88;24.23;;;;;;;;;;5036917;28;92170;-71
2021/12/14 01:57:33;;;;;;;37.13;23.35;;;;;;;;;;5037021;28;95535;-71
2021/12/14 02:00:01;;;;;;;38.08;25.10;;;;;;;;;;5036430;28;95629;-71
2021/12/14 02:02:42;;;;;;;38.75;26.40;;;;;;;;;;5038178;28;92212;-71
2021/12/14 02:05:21;;;;;;;38.00;25.63;;;;;;;;;;5034574;28;97678;-71
2021/12/14 02:07:49;;;;;;;42.13;26.13;;;;;;;;;;5035527;27;92939;-71
2021/12/14 02:10:18;;;;;;;36.63;25.60;;;;;;;;;;5036304;27;95650;-71
2021/12/14 02:12:45;;;;;;;39.65;25.95;;;;;;;;;;5037045;28;92695;-72
2021/12/14 02:15:18;;;;;;;38.17;25.90;;;;;;;;;;5036476;28;92582;-71
2021/12/14 02:17:47;;;;;;;36.72;25.10;;;;;;;;;;5035924;27;96090;-71
2021/12/14 02:20:16;;;;;;;38.33;26.48;;;;;;;;;;5036107;28;96680;-71
2021/12/14 02:22:43;;;;;;;40.88;27.60;;;;;;;;;;5036602;28;92896;-71
2021/12/14 02:25:10;;;;;;;40.50;27.65;;;;;;;;;;5039100;28;94954;-72
2021/12/14 02:27:38;;;;;;;41.38;26.88;;;;;;;;;;5037153;27;92368;-71
2021/12/14 02:30:07;;;;;;;48.13;27.52;;;;;;;;;;5036309;27;94811;-71
2021/12/14 02:32:34;;;;;;;40.53;26.77;;;;;;;;;;5036026;28;95756;-71
2021/12/14 02:35:01;;;;;;;45.25;28.38;;;;;;;;;;5036109;28;93254;-71
2021/12/14 02:37:39;;;;;;;39.20;27.02;;;;;;;;;;5035991;28;94452;-71
2021/12/14 02:40:17;;;;;;;40.33;27.38;;;;;;;;;;5035839;28;95534;-71
2021/12/14 02:42:44;;;;;;;40.42;26.55;;;;;;;;;;5035947;28;93158;-71
2021/12/14 02:45:10;;;;;;;42.05;28.13;;;;;;;;;;5038784;28;95499;-71
2021/12/14 02:47:39;;;;;;;39.72;28.02;;;;;;;;;;5036328;28;91654;-71
2021/12/14 02:50:06;;;;;;;44.40;28.05;;;;;;;;;;5036874;27;92499;-71
2021/12/14 02:52:35;;;;;;;43.17;28.52;;;;;;;;;;5036339;28;93456;-71
2021/12/14 02:55:06;;;;;;;54.05;29.75;;;;;;;;;;5034026;28;94718;-71
2021/12/14 02:57:34;;;;;;;;;;;;;;;;;;5035998;28;97748;-72
2021/12/14 03:00:03;;;;;;;46.15;29.83;;;;;;;;;;5036378;28;95965;-71
2021/12/14 03:02:32;;;;;;;47.05;30.08;;;;;;;;;;5035550;28;92335;-71
2021/12/14 03:05:03;;;;;;;44.00;29.02;;;;;;;;;;5035273;28;95360;-71
2021/12/14 03:07:31;;;;;;;48.05;29.08;;;;;;;;;;5038413;28;94748;-72
2021/12/14 03:10:17;;;;;;;47.22;30.90;;;;;;;;;;5054258;27;93274;-71
2021/12/14 03:12:48;;;;;;;47.65;29.75;;;;;;;;;;5059494;27;96324;-71
2021/12/14 03:15:31;;;;;;;45.35;28.48;;;;;;;;;;5077389;27;92365;-72
2021/12/14 03:17:59;;;;;;;48.83;29.67;;;;;;;;;;5077276;27;93155;-71
2021/12/14 03:20:31;;;;;;;42.88;28.55;;;;;;;;;;5057055;27;98376;-71
2021/12/14 03:23:03;;;;;;;47.08;29.38;;;;;;;;;;5058724;27;92360;-71
2021/12/14 03:25:31;;;;;;;46.55;28.55;;;;;;;;;;5077281;27;93272;-71
2021/12/14 03:27:58;;;;;;;44.25;29.13;;;;;;;;;;5076630;27;92334;-71
2021/12/14 03:30:25;;;;;;;47.58;29.50;;;;;;;;;;5060895;27;92933;-71
2021/12/14 03:32:53;;;;;;;45.85;28.73;;;;;;;;;;5058351;27;95353;-71
2021/12/14 03:35:20;;;;;;;44.63;30.00;;;;;;;;;;5077075;27;92293;-71
2021/12/14 03:37:47;;;;;;;46.80;29.92;;;;;;;;;;5059187;27;95993;-71
2021/12/14 03:40:15;;;;;;;44.45;29.75;;;;;;;;;;5058374;27;95423;-72
2021/12/14 03:42:45;;;;;;;45.10;30.08;;;;;;;;;;5058484;27;92381;-71
2021/12/14 03:45:19;;;;;;;49.40;29.45;;;;;;;;;;5056999;27;95575;-71
2021/12/14 03:47:52;;;;;;;48.53;30.65;;;;;;;;;;5058593;27;95207;-71
2021/12/14 03:50:22;;;;;;;46.22;29.90;;;;;;;;;;5058511;27;92402;-71
2021/12/14 03:52:50;;;;;;;45.85;29.95;;;;;;;;;;5061381;27;96227;-72
2021/12/14 03:55:19;;;;;;;46.17;29.63;;;;;;;;;;5058540;27;92593;-71
2021/12/14 03:57:47;;;;;;;48.92;30.27;;;;;;;;;;5041575;27;96329;-71
2021/12/14 04:00:17;;;;;;;48.33;30.65;;;;;;;;;;5058207;27;96508;-71
2021/12/14 04:02:53;;;;;;;49.42;30.48;;;;;;;;;;5076218;27;91509;-71
2021/12/14 04:05:34;;;;;;;47.95;29.90;;;;;;;;;;5058086;27;95302;-71
2021/12/14 04:08:03;;;;;;;51.63;31.10;;;;;;;;;;5076350;27;92907;-71
2021/12/14 04:10:31;;;;;;;48.05;29.50;;;;;;;;;;5074974;27;95421;-71
2021/12/14 04:12:58;;;;;;;47.63;29.10;;;;;;;;;;5057983;27;98282;-71
2021/12/14 04:15:25;;;;;;;48.88;29.92;;;;;;;;;;5061199;27;94469;-72
2021/12/14 04:17:51;;;;;;;44.95;28.77;;;;;;;;;;5058019;27;95046;-72
2021/12/14 04:20:22;;;;;;;42.20;28.65;;;;;;;;;;5058003;27;95466;-71
2021/12/14 04:22:49;;;;;;;43.63;28.30;;;;;;;;;;5076582;27;92337;-71
2021/12/14 04:25:18;;;;;;;44.30;28.02;;;;;;;;;;5058221;27;96022;-72
2021/12/14 04:27:45;;;;;;;43.38;27.50;;;;;;;;;;5058445;27;93549;-71
2021/12/14 04:30:13;;;;;;;44.28;29.83;;;;;;;;;;5058222;27;92517;-71
2021/12/14 04:32:40;;;;;;;44.00;27.70;;;;;;;;;;5057362;27;95032;-71
2021/12/14 04:35:08;;;;;;;43.03;27.95;;;;;;;;;;5039663;27;97920;-71
2021/12/14 04:37:39;;;;;;;41.42;27.60;;;;;;;;;;5060959;27;92412;-71
2021/12/14 04:40:24;;;;;;;44.90;27.53;;;;;;;;;;5058134;27;95694;-71
2021/12/14 04:53:55;;;;;;;42.97;27.48;;;;;;;;;;5061601;27;95426;-71
2021/12/14 04:56:26;;;;;;;44.63;27.65;;;;;;;;;;5061282;27;95775;-71
2021/12/14 04:58:56;;;;;;;41.60;27.17;;;;;;;;;;5064180;27;92481;-71
2021/12/14 05:01:23;;;;;;;42.42;26.80;;;;;;;;;;5077423;27;96765;-71
2021/12/14 05:03:53;;;;;;;39.72;27.10;;;;;;;;;;5060586;27;92771;-71
2021/12/14 05:06:23;;;;;;;43.47;27.80;;;;;;;;;;5061158;27;95707;-71
2021/12/14 05:11:42;;;;;;;38.03;26.50;;;;;;;;;;5060903;27;93368;-71
2021/12/14 05:14:11;;;;;;;39.10;26.90;;;;;;;;;;5079312;27;92513;-71
2021/12/14 05:16:43;;;;;;;45.83;26.98;;;;;;;;;;5060808;27;96055;-71
2021/12/14 05:19:28;;;;;;;46.30;28.42;;;;;;;;;;5060957;27;92967;-71
2021/12/14 05:22:01;;;;;;;39.67;26.83;;;;;;;;;;5064063;27;95306;-71
2021/12/14 05:24:30;;;;;;;40.47;26.27;;;;;;;;;;5060999;27;92386;-71
2021/12/14 05:27:02;;;;;;;44.13;27.40;;;;;;;;;;5059346;27;94697;-71
2021/12/14 05:29:33;;;;;;;40.42;25.95;;;;;;;;;;5060688;27;93945;-71
2021/12/14 05:32:04;;;;;;;41.60;26.75;;;;;;;;;;5060343;27;92678;-71
2021/12/14 05:34:36;;;;;;;39.60;26.08;;;;;;;;;;5060676;27;96626;-71
2021/12/14 05:37:06;;;;;;;36.83;25.35;;;;;;;;;;5060368;27;96364;-71
2021/12/14 05:45:21;;;;;;;36.50;24.67;;;;;;;;;;5064108;27;95203;-71
2021/12/14 05:47:53;;;;;;;39.22;26.10;;;;;;;;;;5060466;27;95034;-71
2021/12/14 05:50:30;;;;;;;37.25;25.08;;;;;;;;;;5060568;27;96399;-71
2021/12/14 05:52:58;;;;;;;38.15;25.20;;;;;;;;;;5057403;27;96644;-72
2021/12/14 05:55:26;;;;;;;39.33;25.00;;;;;;;;;;5078800;27;96079;-71
2021/12/14 05:57:56;;;;;;;37.78;25.05;;;;;;;;;;5078336;27;93329;-71
2021/12/14 06:00:27;;;;;;;39.08;25.42;;;;;;;;;;5060327;27;92587;-71
2021/12/14 06:03:00;;;;;;;39.08;25.77;;;;;;;;;;5059643;27;94909;-71
2021/12/14 06:05:28;;;;;;;41.78;26.02;;;;;;;;;;5060070;27;96048;-71
2021/12/14 06:07:57;;;;;;;34.28;24.40;;;;;;;;;;5063458;27;92337;-71
2021/12/14 06:10:24;;;;;;;39.72;24.55;;;;;;;;;;5060349;27;94733;-71
2021/12/14 06:12:52;;;;;;;43.88;25.88;;;;;;;;;;5059939;27;92646;-71
2021/12/14 06:15:25;;;;;;;38.45;24.88;;;;;;;;;;5059849;27;95795;-71
2021/12/14 06:17:54;;;;;;;41.10;25.75;;;;;;;;;;5058117;27;98502;-71
2021/12/14 06:20:50;;;;;;;38.47;24.85;;;;;;;;;;5059284;27;92274;-71
2021/12/14 06:23:23;;;;;;;38.03;24.88;;;;;;;;;;5059806;27;95287;-71
2021/12/14 06:26:06;;;;;;;37.38;24.08;;;;;;;;;;5059707;27;95274;-71
2021/12/14 06:28:33;;;;;;;36.17;25.08;;;;;;;;;;5060129;27;92529;-71
2021/12/14 06:31:03;;;;;;;38.83;25.30;;;;;;;;;;5046447;27;95987;-71
2021/12/14 06:33:30;;;;;;;41.30;24.13;;;;;;;;;;5059494;27;92599;-71
2021/12/14 06:36:00;;;;;;;37.20;24.58;;;;;;;;;;5043416;27;94282;-73
2021/12/14 06:38:33;;;;;;;35.03;24.05;;;;;;;;;;5059165;27;95745;-72
2021/12/14 06:41:21;;;;;;;39.63;25.77;;;;;;;;;;5059689;27;92882;-72
2021/12/14 06:43:58;;;;;;;37.17;24.67;;;;;;;;;;5058078;27;96315;-72
2021/12/14 06:46:32;;;;;;;39.15;25.00;;;;;;;;;;5059496;27;95909;-72
2021/12/14 06:49:06;;;;;;;36.22;24.00;;;;;;;;;;5059335;27;93059;-72
2021/12/14 06:51:35;;;;;;;37.33;24.55;;;;;;;;;;5062565;27;97153;-71
2021/12/14 06:54:12;;;;;;;40.88;24.35;;;;;;;;;;5059416;27;93706;-72
2021/12/14 06:56:58;;;;;;;35.15;23.75;;;;;;;;;;5077003;27;92455;-72
2021/12/14 06:59:38;;;;;;;37.35;25.52;;;;;;;;;;5059340;27;95661;-71
2021/12/14 07:02:09;;;;;;;34.92;24.30;;;;;;;;;;5076116;27;91599;-72
2021/12/14 07:05:04;;;;;;;36.55;24.35;;;;;;;;;;5057947;27;95122;-71
2021/12/14 07:07:35;;;;;;;36.83;24.00;;;;;;;;;;5058744;27;95206;-72
2021/12/14 07:10:13;;;;;;;39.10;24.95;;;;;;;;;;5056731;27;94735;-72
2021/12/14 07:12:40;;;;;;;34.17;23.48;;;;;;;;;;5077236;27;95141;-72
2021/12/14 07:15:12;;;;;;;37.05;24.40;;;;;;;;;;5080513;27;93583;-72
2021/12/14 07:17:43;;;;;;;36.10;24.92;;;;;;;;;;5077340;27;93575;-72
2021/12/14 07:20:27;;;;;;;36.55;24.90;;;;;;;;;;5076813;27;93657;-71
2021/12/14 07:22:56;;;;;;;38.35;24.95;;;;;;;;;;5077461;27;92118;-72
2021/12/14 07:25:25;;;;;;;34.45;24.27;;;;;;;;;;5077321;27;93666;-71
2021/12/14 07:27:56;;;;;;;35.70;23.58;;;;;;;;;;5077564;27;92162;-72
2021/12/14 07:30:38;;;;;;;34.63;23.73;;;;;;;;;;5077108;27;92308;-73
2021/12/14 07:33:07;;;;;;;35.72;24.70;;;;;;;;;;5059098;27;93301;-72
2021/12/14 07:35:37;;;;;;;35.75;24.02;;;;;;;;;;5075276;27;96364;-71
2021/12/14 07:38:15;;;;;;;36.25;23.20;;;;;;;;;;5080187;27;92305;-72
2021/12/14 07:40:46;;;;;;;35.67;23.20;;;;;;;;;;5077019;27;94217;-73
2021/12/14 07:43:18;;;;;;;33.93;24.17;;;;;;;;;;5076626;27;92269;-69
2021/12/14 07:45:50;;;;;;;33.80;24.58;;;;;;;;;;5058595;27;94902;-71
2021/12/14 07:48:21;;;;;;;36.80;24.77;;;;;;;;;;5076801;27;93704;-72
2021/12/14 07:50:54;;;;;;;39.58;24.73;;;;;;;;;;5076943;27;92392;-72
2021/12/14 07:53:31;;;;;;;38.78;25.25;;;;;;;;;;5076890;27;93371;-72
2021/12/14 07:55:59;;;;;;;37.85;24.90;;;;;;;;;;5076792;27;93770;-74
2021/12/14 07:58:29;;;;;;;37.25;24.92;;;;;;;;;;5076685;27;92967;-72
2021/12/14 08:00:56;;;;;;;39.85;24.95;;;;;;;;;;5059913;27;94952;-72
2021/12/14 08:03:28;;;;;;;38.33;24.63;;;;;;;;;;5076855;27;92330;-72
2021/12/14 08:05:55;;;;;;;36.65;25.70;;;;;;;;;;5076236;27;92501;-73
2021/12/14 08:08:31;;;;;;;40.78;24.92;;;;;;;;;;5076462;27;93699;-72
2021/12/14 08:11:28;;;;;;;37.78;23.92;;;;;;;;;;5076530;27;92718;-71
2021/12/14 08:14:00;;;;;;;36.05;24.48;;;;;;;;;;5076624;27;93535;-71
2021/12/14 08:16:26;;;;;;;;;;;;;;;;;;5077592;27;93732;-71
2021/12/14 08:18:53;;;;;;;36.65;22.85;;;;;;;;;;5062560;27;119537;-72
2021/12/14 08:21:21;;;;;;;33.63;23.13;;;;;;;;;;5080219;27;92572;-73
2021/12/14 08:23:48;;;;;;;36.45;24.15;;;;;;;;;;5083183;27;93729;-71
2021/12/14 08:26:16;;;;;;;38.72;24.10;;;;;;;;;;5078473;27;94691;-70
2021/12/14 08:28:50;;;;;;;36.78;23.80;;;;;;;;;;5080076;27;93800;-72
2021/12/14 08:31:17;;;;;;;39.40;24.02;;;;;;;;;;5080106;27;92248;-72
2021/12/14 08:33:44;;;;;;;35.78;24.60;;;;;;;;;;5080042;27;93241;-72
2021/12/14 08:36:12;;;;;;;36.42;24.15;;;;;;;;;;5079768;27;93205;-71
2021/12/14 08:38:38;;;;;;;37.00;24.15;;;;;;;;;;5079786;27;92154;-72
2021/12/14 08:41:21;;;;;;;41.00;24.80;;;;;;;;;;5079842;27;93524;-72
2021/12/14 08:43:50;;;;;;;36.42;24.23;;;;;;;;;;5079895;27;92968;-73
2021/12/14 08:46:19;;;;;;;39.63;23.40;;;;;;;;;;5082877;27;92333;-72
2021/12/14 08:48:49;;;;;;;38.67;26.65;;;;;;;;;;5079625;27;92959;-71
2021/12/14 08:51:23;;;;;;;39.22;25.10;;;;;;;;;;5078142;27;94746;-72
2021/12/14 08:53:52;;;;;;;36.95;22.45;;;;;;;;;;5079301;27;95719;-72
2021/12/14 08:56:19;;;;;;;36.28;23.25;;;;;;;;;;5060553;27;95688;-71
2021/12/14 08:58:46;;;;;;;36.95;25.20;;;;;;;;;;5079573;27;92216;-70
2021/12/14 09:01:16;;;;;;;38.50;24.60;;;;;;;;;;5079571;27;93236;-72
2021/12/14 09:03:50;;;;;;;37.38;24.95;;;;;;;;;;5079504;27;93635;-73
2021/12/14 09:06:18;;;;;;;36.17;24.30;;;;;;;;;;5082603;27;92266;-72
2021/12/14 09:08:45;;;;;;;38.33;25.70;;;;;;;;;;5079485;27;92852;-71
2021/12/14 09:11:14;;;;;;;35.20;24.70;;;;;;;;;;5079271;27;92259;-73
2021/12/14 09:13:40;;;;;;;37.72;24.13;;;;;;;;;;5079394;27;92562;-71
2021/12/14 09:16:18;;;;;;;40.90;24.45;;;;;;;;;;5077630;27;95423;-71
2021/12/14 09:18:49;;;;;;;37.45;24.27;;;;;;;;;;5079152;27;92154;-71
2021/12/14 09:21:19;;;;;;;45.72;26.77;;;;;;;;;;5078950;27;93342;-72
2021/12/14 09:23:49;;;;;;;38.90;25.80;;;;;;;;;;5079031;27;93659;-71
2021/12/14 09:26:19;;;;;;;41.17;25.52;;;;;;;;;;5079262;27;92330;-71
2021/12/14 09:28:47;;;;;;;38.58;25.70;;;;;;;;;;5081105;27;93012;-72
2021/12/14 09:31:18;;;;;;;39.55;25.67;;;;;;;;;;5078812;27;92325;-73
2021/12/14 09:33:45;;;;;;;46.55;26.13;;;;;;;;;;5078804;27;93279;-74
2021/12/14 09:36:13;;;;;;;41.17;27.60;;;;;;;;;;5078683;27;94211;-72
2021/12/14 09:38:41;;;;;;;45.60;28.45;;;;;;;;;;5078975;27;92299;-71
2021/12/14 09:41:10;;;;;;;45.00;28.08;;;;;;;;;;5077483;27;95471;-70
2021/12/14 09:43:37;;;;;;;41.28;27.90;;;;;;;;;;5078758;27;93631;-71
2021/12/14 09:46:06;;;;;;;43.72;28.40;;;;;;;;;;5078551;27;92272;-70
2021/12/14 09:48:39;;;;;;;46.63;27.95;;;;;;;;;;5078687;27;93508;-70
2021/12/14 09:51:08;;;;;;;47.55;28.25;;;;;;;;;;5081558;27;93906;-71
2021/12/14 09:53:35;;;;;;;43.60;28.23;;;;;;;;;;5078843;27;93490;-70
2021/12/14 09:56:04;;;;;;;46.65;28.95;;;;;;;;;;5078601;27;93595;-71
2021/12/14 09:58:32;;;;;;;47.88;28.77;;;;;;;;;;5079024;27;91648;-71
2021/12/14 10:01:03;;;;;;;45.25;28.67;;;;;;;;;;5078322;27;92420;-71
2021/12/14 10:03:30;;;;;;;50.28;29.55;;;;;;;;;;5078405;27;93248;-71
2021/12/14 10:05:58;;;;;;;51.03;28.65;;;;;;;;;;5065774;27;94753;-71
2021/12/14 10:08:32;;;;;;;48.60;30.55;;;;;;;;;;5057952;27;95913;-71
2021/12/14 10:11:06;;;;;;;47.22;29.27;;;;;;;;;;5074249;27;93525;-71
2021/12/14 10:13:34;;;;;;;50.03;29.52;;;;;;;;;;5079348;27;92408;-72
2021/12/14 10:16:02;;;;;;;50.22;29.40;;;;;;;;;;5057850;27;92634;-71
2021/12/14 10:18:33;;;;;;;53.22;31.10;;;;;;;;;;5057818;27;92825;-71
2021/12/14 10:21:14;;;;;;;55.17;30.37;;;;;;;;;;5057683;27;93614;-70
2021/12/14 10:23:42;;;;;;;56.72;31.40;;;;;;;;;;5057863;27;92681;-70
2021/12/14 10:26:09;;;;;;;54.45;31.40;;;;;;;;;;5057820;27;92296;-70
2021/12/14 10:28:37;;;;;;;57.83;32.17;;;;;;;;;;5057736;27;93021;-70
2021/12/14 10:31:08;;;;;;;58.65;32.95;;;;;;;;;;5056082;27;95943;-70
2021/12/14 10:33:35;;;;;;;55.88;32.28;;;;;;;;;;5057483;27;92101;-70
2021/12/14 10:36:06;;;;;;;60.20;33.47;;;;;;;;;;5060631;27;92801;-70
2021/12/14 10:38:38;;;;;;;53.00;31.27;;;;;;;;;;5057513;27;93327;-71
2021/12/14 10:43:52;;;;;;;53.95;32.88;;;;;;;;;;5057469;27;93858;-71
2021/12/14 10:46:22;;;;;;;51.70;31.92;;;;;;;;;;5057614;27;92320;-71
2021/12/14 10:48:49;;;;;;;62.95;33.95;;;;;;;;;;5057459;27;92992;-71
2021/12/14 10:51:17;;;;;;;55.13;33.63;;;;;;;;;;5057312;27;92687;-71
2021/12/14 10:53:47;;;;;;;67.03;35.92;;;;;;;;;;5057453;27;92334;-71
2021/12/14 10:56:35;;;;;;;61.72;35.72;;;;;;;;;;5055516;27;94569;-71
2021/12/14 10:59:03;;;;;;;55.67;34.42;;;;;;;;;;5060049;27;93605;-72
2021/12/14 11:01:33;;;;;;;56.17;33.97;;;;;;;;;;5039549;27;93485;-71
2021/12/14 11:04:03;;;;;;;62.75;34.72;;;;;;;;;;5057115;27;93650;-71
2021/12/14 11:06:31;;;;;;;63.67;35.80;;;;;;;;;;5057422;27;92254;-71
2021/12/14 11:11:36;;;;;;;62.78;35.63;;;;;;;;;;5056297;27;93630;-71
2021/12/14 11:14:07;;;;;;;68.80;37.63;;;;;;;;;;5057387;27;91473;-71
2021/12/14 11:19:31;;;;;;;61.17;37.00;;;;;;;;;;5059912;27;93711;-70
2021/12/14 11:22:08;;;;;;;69.90;36.67;;;;;;;;;;5055161;27;94762;-71
2021/12/14 11:24:36;;;;;;;62.78;36.42;;;;;;;;;;5056770;27;93590;-71
2021/12/14 11:27:12;;;;;;;63.15;35.80;;;;;;;;;;5057117;27;92193;-70
2021/12/14 11:29:38;;;;;;;63.70;36.45;;;;;;;;;;5056725;27;93383;-70
2021/12/14 11:32:07;;;;;;;70.32;37.17;;;;;;;;;;5056539;27;92836;-70
2021/12/14 11:34:35;;;;;;;71.53;38.28;;;;;;;;;;5056326;27;92299;-71
2021/12/14 11:37:08;;;;;;;65.30;36.78;;;;;;;;;;5056627;27;93652;-70
2021/12/14 11:39:35;;;;;;;64.60;36.13;;;;;;;;;;5057028;27;92927;-70
2021/12/14 11:42:01;;;;;;;66.13;36.53;;;;;;;;;;5059422;27;92155;-72
2021/12/14 11:44:30;;;;;;;67.63;37.05;;;;;;;;;;5056297;27;93731;-70
2021/12/14 11:47:32;;;;;;;71.47;38.97;;;;;;;;;;5054620;27;94676;-71
2021/12/14 11:50:00;;;;;;;;;;;;;;;;;;5056889;27;95400;-70
2021/12/14 11:52:35;;;;;;;71.25;37.33;;;;;;;;;;5059132;27;121905;-71
2021/12/14 11:55:14;;;;;;;73.47;36.42;;;;;;;;;;5060220;27;92136;-69
2021/12/14 11:57:41;;;;;;;73.97;37.15;;;;;;;;;;5059467;27;93432;-69
2021/12/14 12:00:10;;;;;;;75.03;37.85;;;;;;;;;;5059922;27;93732;-69
2021/12/14 12:02:37;;;;;;;70.22;38.00;;;;;;;;;;5060092;27;92179;-69
2021/12/14 12:05:14;;;;;;;71.90;37.70;;;;;;;;;;5063521;27;93331;-69
2021/12/14 12:10:35;;;;;;;76.22;39.47;;;;;;;;;;5079838;27;93394;-70
2021/12/14 12:13:03;;;;;;;75.05;37.20;;;;;;;;;;5078461;27;96055;-70
2021/12/14 12:15:29;;;;;;;72.43;38.72;;;;;;;;;;5062237;27;93325;-72
2021/12/14 12:17:59;;;;;;;72.05;37.95;;;;;;;;;;5080248;27;93369;-72
2021/12/14 12:20:28;;;;;;;74.22;39.15;;;;;;;;;;5080108;27;93560;-71
2021/12/14 12:22:54;;;;;;;75.38;38.05;;;;;;;;;;5080318;27;92449;-70
2021/12/14 12:25:22;;;;;;;75.30;38.53;;;;;;;;;;5080260;27;93952;-71
2021/12/14 12:27:57;;;;;;;74.25;36.83;;;;;;;;;;5064767;27;94557;-70
2021/12/14 12:30:43;;;;;;;70.72;36.28;;;;;;;;;;5045621;27;95565;-71
2021/12/14 12:33:18;;;;;;;66.63;35.25;;;;;;;;;;5079559;27;93698;-70
2021/12/14 12:35:44;;;;;;;74.18;36.50;;;;;;;;;;5079976;27;92186;-70
2021/12/14 12:38:30;;;;;;;76.05;37.28;;;;;;;;;;5078140;27;94956;-70
2021/12/14 12:41:08;;;;;;;76.25;37.05;;;;;;;;;;5079786;27;93611;-70
2021/12/14 12:43:43;;;;;;;67.88;35.22;;;;;;;;;;5079377;27;92367;-70
2021/12/14 12:46:17;;;;;;;73.93;36.17;;;;;;;;;;5055904;27;94185;-70
2021/12/14 12:48:52;;;;;;;61.97;34.15;;;;;;;;;;5059113;27;93446;-70
2021/12/14 12:51:37;;;;;;;67.32;34.72;;;;;;;;;;5062420;27;92220;-70
2021/12/14 12:54:15;;;;;;;64.32;34.95;;;;;;;;;;5058658;27;93432;-70
2021/12/14 12:56:42;;;;;;;57.28;32.55;;;;;;;;;;5059304;27;91675;-69
2021/12/14 12:59:10;;;;;;;56.35;32.05;;;;;;;;;;5041098;27;93732;-70
2021/12/14 13:01:40;;;;;;;60.40;32.87;;;;;;;;;;5059020;27;93991;-69
2021/12/14 13:04:06;;;;;;;55.72;31.40;;;;;;;;;;5057433;27;95466;-75
2021/12/14 13:06:33;;;;;;;60.40;32.53;;;;;;;;;;5058377;27;95797;-71
2021/12/14 13:09:00;;;;;;;61.50;33.10;;;;;;;;;;5058809;27;93709;-70
2021/12/14 13:11:44;;;;;;;60.70;34.60;;;;;;;;;;5058813;27;92235;-69
2021/12/14 13:14:13;;;;;;;66.80;34.17;;;;;;;;;;5061929;27;93871;-70
2021/12/14 13:16:40;;;;;;;58.83;32.65;;;;;;;;;;5058807;27;92259;-70
2021/12/14 13:19:13;;;;;;;66.45;34.17;;;;;;;;;;5058581;27;93454;-70
2021/12/14 13:21:49;;;;;;;65.63;34.13;;;;;;;;;;5041186;27;93093;-70
2021/12/14 13:24:21;;;;;;;64.15;33.03;;;;;;;;;;5058786;27;92277;-70
2021/12/14 13:26:47;;;;;;;;;;;;;;;;;;5059017;27;93457;-70
2021/12/14 13:29:14;;;;;;;62.05;31.98;;;;;;;;;;5056454;27;125407;-72
2021/12/14 13:31:43;;;;;;;58.75;33.63;;;;;;;;;;5058568;27;92380;-69
2021/12/14 13:34:38;;;;;;;66.82;33.65;;;;;;;;;;5061643;27;93511;-70
2021/12/14 13:37:05;;;;;;;59.95;33.63;;;;;;;;;;5058300;27;92332;-71
2021/12/14 13:39:32;;;;;;;61.72;34.90;;;;;;;;;;5058596;27;92942;-71
2021/12/14 13:41:58;;;;;;;65.85;33.30;;;;;;;;;;5057970;27;92863;-71
2021/12/14 13:44:28;;;;;;;68.82;33.30;;;;;;;;;;5058575;27;92251;-71
2021/12/14 13:46:56;;;;;;;62.65;33.60;;;;;;;;;;5058800;27;93406;-71
2021/12/14 13:49:23;;;;;;;60.45;31.13;;;;;;;;;;5058196;27;93985;-71
2021/12/14 13:51:50;;;;;;;59.25;33.42;;;;;;;;;;5058121;27;92158;-71
2021/12/14 13:54:16;;;;;;;57.60;32.15;;;;;;;;;;5056686;27;94542;-71
2021/12/14 13:56:45;;;;;;;57.00;32.17;;;;;;;;;;5060601;27;93593;-70
2021/12/14 13:59:15;;;;;;;56.80;31.35;;;;;;;;;;5057959;27;93794;-70
2021/12/14 14:01:45;;;;;;;57.92;31.92;;;;;;;;;;5057927;27;93700;-71
2021/12/14 14:04:14;;;;;;;57.07;30.70;;;;;;;;;;5058233;27;92405;-71
2021/12/14 14:06:41;;;;;;;53.00;29.80;;;;;;;;;;5058116;27;93569;-71
2021/12/14 14:09:09;;;;;;;52.60;29.38;;;;;;;;;;5057454;27;93725;-70
2021/12/14 14:11:48;;;;;;;46.58;26.42;;;;;;;;;;5058196;27;91567;-71
2021/12/14 14:14:14;;;;;;;46.95;26.77;;;;;;;;;;5057452;27;92873;-72
2021/12/14 14:16:43;;;;;;;41.50;24.75;;;;;;;;;;5057838;27;93752;-71
2021/12/14 14:19:13;;;;;;;43.83;25.63;;;;;;;;;;5059520;27;94762;-72
2021/12/14 14:21:47;;;;;;;42.35;26.13;;;;;;;;;;5057285;27;93620;-72
2021/12/14 14:24:34;;;;;;;46.20;25.48;;;;;;;;;;5039594;27;93056;-72
2021/12/14 14:27:02;;;;;;;47.42;26.00;;;;;;;;;;5057627;27;93573;-71
2021/12/14 14:29:42;;;;;;;49.92;26.75;;;;;;;;;;5057706;27;93733;-71
2021/12/14 14:32:23;;;;;;;51.88;26.70;;;;;;;;;;5057331;27;92444;-71
2021/12/14 14:34:55;;;;;;;48.17;27.75;;;;;;;;;;5057814;27;93459;-71
2021/12/14 14:37:26;;;;;;;51.67;28.35;;;;;;;;;;5057845;27;92741;-71
2021/12/14 14:39:57;;;;;;;53.53;27.67;;;;;;;;;;5057621;27;92259;-70
2021/12/14 14:42:25;;;;;;;51.88;28.27;;;;;;;;;;5060105;27;93582;-70
2021/12/14 14:44:56;;;;;;;50.67;28.08;;;;;;;;;;5037800;27;94721;-71
2021/12/14 14:47:27;;;;;;;57.08;29.25;;;;;;;;;;5063592;27;95534;-70
2021/12/14 14:49:55;;;;;;;61.75;29.38;;;;;;;;;;5096838;27;93947;-70
2021/12/14 14:52:23;;;;;;;56.72;30.27;;;;;;;;;;5098445;27;92525;-70
2021/12/14 14:54:58;;;;;;;59.50;30.48;;;;;;;;;;5097872;27;92947;-71
2021/12/14 14:57:24;;;;;;;60.15;29.88;;;;;;;;;;5097996;27;93412;-70
2021/12/14 14:59:53;;;;;;;64.82;31.00;;;;;;;;;;5098412;27;92239;-70
2021/12/14 15:02:35;;;;;;;68.20;31.92;;;;;;;;;;5098542;27;93393;-70
2021/12/14 15:05:02;;;;;;;;;;;;;;;;;;5101667;27;93822;-71
2021/12/14 15:07:46;;;;;;;67.80;31.33;;;;;;;;;;5097718;27;121443;-70
2021/12/14 15:10:14;;;;;;;66.38;31.95;;;;;;;;;;5077749;27;98574;-70
2021/12/14 15:12:42;;;;;;;71.88;32.80;;;;;;;;;;5079417;27;93051;-70
2021/12/14 15:15:10;;;;;;;77.57;33.38;;;;;;;;;;5097713;27;93532;-71
2021/12/14 15:17:43;;;;;;;77.75;33.88;;;;;;;;;;5079562;27;93516;-71
2021/12/14 15:20:25;;;;;;;73.97;35.38;;;;;;;;;;5098003;27;92405;-71
2021/12/14 15:22:59;;;;;;;72.43;34.55;;;;;;;;;;5097739;27;93628;-70